Time;durP1;ratioP1;P1;durP2;ratioP2;P2;SDS_P1;SDS_P2;PMS_P1;PMS_P2;Temp;Humidity;BMP_temperature;BMP_pressure;BME280_temperature;BME280_humidity;BME280_pressure;Samples;Min_cycle;Max_cycle;Signal;HPM_P1;HPM_P2
2022/09/29 00:01:30;;;;;;;9.30;5.95;;;;;;;10.68;69.28;98669.31;5072847;28;20434;-57
2022/09/29 00:03:55;;;;;;;5.93;5.32;;;;;;;10.65;69.36;98664.28;5072928;28;20056;-53
2022/09/29 00:06:21;;;;;;;7.43;5.57;;;;;;;10.56;68.79;98653.50;5071912;28;20045;-56
2022/09/29 00:08:46;;;;;;;7.47;6.00;;;;;;;10.68;68.48;98672.00;5071728;28;20067;-57
2022/09/29 00:11:15;;;;;;;9.18;5.60;;;;;;;10.68;68.88;98672.84;5071606;28;20036;-55
2022/09/29 00:13:41;;;;;;;6.72;5.97;;;;;;;10.64;69.00;98674.16;5071860;28;20029;-55
2022/09/29 00:16:07;;;;;;;7.93;5.90;;;;;;;10.63;69.12;98677.84;5072614;28;20040;-61
2022/09/29 00:18:34;;;;;;;10.65;7.63;;;;;;;10.65;68.89;98673.16;5072303;28;20505;-56
2022/09/29 00:21:02;;;;;;;8.75;6.20;;;;;;;10.65;68.83;98673.16;5072645;28;20043;-61
2022/09/29 00:23:29;;;;;;;8.32;5.93;;;;;;;10.65;69.07;98675.84;5073040;28;20047;-54
2022/09/29 00:26:13;;;;;;;7.13;5.65;;;;;;;10.74;68.89;98674.91;5072330;28;20028;-56
2022/09/29 00:28:40;;;;;;;9.98;5.65;;;;;;;10.68;68.89;98675.53;5072581;28;20112;-57
2022/09/29 00:31:09;;;;;;;8.80;5.60;;;;;;;10.66;68.52;98682.03;5072042;28;20039;-55
2022/09/29 00:33:36;;;;;;;6.13;5.45;;;;;;;10.70;68.75;98691.44;5072261;28;20142;-53
2022/09/29 00:36:07;;;;;;;12.40;5.38;;;;;;;10.74;68.95;98692.84;5072684;28;20037;-56
2022/09/29 00:38:34;;;;;;;8.38;6.18;;;;;;;10.69;68.81;98690.59;5072360;28;20067;-62
2022/09/29 00:41:00;;;;;;;6.35;5.38;;;;;;;10.50;68.68;98666.66;5072866;28;20311;-57
2022/09/29 00:43:47;;;;;;;8.00;5.50;;;;;;;10.79;68.90;98695.03;5072271;28;20039;-54
2022/09/29 00:46:18;;;;;;;8.98;5.65;;;;;;;10.69;68.74;98695.94;5072126;28;20040;-57
2022/09/29 00:48:46;;;;;;;6.90;5.40;;;;;;;10.66;68.89;98698.94;5072286;28;20041;-55
2022/09/29 00:51:12;;;;;;;9.15;5.53;;;;;;;10.64;69.11;98698.25;5072012;28;20037;-54
2022/09/29 00:53:39;;;;;;;9.20;6.32;;;;;;;10.63;68.52;98697.41;5072125;28;20384;-54
2022/09/29 00:56:10;;;;;;;6.68;5.55;;;;;;;10.66;68.99;98700.75;5071154;28;20037;-55
2022/09/29 00:58:41;;;;;;;10.15;5.55;;;;;;;10.69;69.04;98698.63;5071482;28;20025;-55
2022/09/29 01:01:07;;;;;;;9.57;6.03;;;;;;;10.70;69.02;98713.69;5072150;28;20040;-56
2022/09/29 01:03:39;;;;;;;8.52;5.57;;;;;;;10.71;69.06;98710.03;5072213;28;20036;-54
2022/09/29 01:06:12;;;;;;;8.63;6.18;;;;;;;10.76;69.17;98709.56;5072029;28;20094;-60
2022/09/29 01:08:37;;;;;;;8.88;6.00;;;;;;;10.71;69.17;98715.38;5072064;28;20029;-55
2022/09/29 01:11:04;;;;;;;9.70;6.28;;;;;;;10.70;69.12;98716.38;5071992;28;20069;-56
2022/09/29 01:13:31;;;;;;;8.00;5.40;;;;;;;10.72;68.96;98719.75;5071657;28;20086;-56
2022/09/29 01:15:57;;;;;;;8.82;5.75;;;;;;;10.72;69.07;98709.03;5071865;28;20036;-57
2022/09/29 01:18:22;;;;;;;7.82;6.45;;;;;;;10.71;69.25;98710.03;5070333;28;20209;-53
2022/09/29 01:21:17;;;;;;;13.23;6.07;;;;;;;10.83;69.31;98707.97;5071429;28;20024;-55
2022/09/29 01:23:42;;;;;;;11.82;7.57;;;;;;;10.74;68.54;98701.69;5071667;28;20032;-54
2022/09/29 01:26:07;;;;;;;10.82;8.13;;;;;;;10.72;68.36;98700.16;5071991;28;20043;-55
2022/09/29 01:28:39;;;;;;;10.30;8.10;;;;;;;10.73;68.10;98701.81;5072142;28;20036;-57
2022/09/29 01:31:21;;;;;;;13.95;8.55;;;;;;;10.80;67.93;98716.31;5071629;28;20375;-59
2022/09/29 01:34:10;;;;;;;11.18;7.75;;;;;;;10.80;67.64;98716.31;5071955;28;20033;-50
2022/09/29 01:36:36;;;;;;;10.43;7.03;;;;;;;10.57;67.28;98687.31;5070770;28;20032;-60
2022/09/29 01:39:31;;;;;;;10.45;6.38;;;;;;;10.81;67.55;98714.44;5071979;28;20474;-57
2022/09/29 01:42:10;;;;;;;8.10;6.18;;;;;;;10.77;67.34;98717.44;5073540;28;20070;-56
2022/09/29 01:44:43;;;;;;;8.43;6.38;;;;;;;10.75;67.20;98711.41;5075758;28;20071;-55
2022/09/29 01:47:15;;;;;;;6.60;5.80;;;;;;;10.72;67.19;98722.41;5075289;28;20060;-55
2022/09/29 01:49:46;;;;;;;7.47;6.10;;;;;;;10.70;67.34;98724.41;5074500;28;20340;-58
2022/09/29 01:52:20;;;;;;;8.00;5.95;;;;;;;10.68;67.39;98733.56;5074976;28;20360;-55
2022/09/29 01:55:01;;;;;;;9.43;5.60;;;;;;;10.72;67.55;98729.59;5075171;28;20025;-53
2022/09/29 01:57:37;;;;;;;5.80;5.20;;;;;;;10.68;67.29;98742.47;5075035;28;20029;-55
2022/09/29 02:00:09;;;;;;;6.80;5.50;;;;;;;10.69;66.84;98732.56;5075298;28;20032;-56
2022/09/29 02:03:07;;;;;;;6.45;5.35;;;;;;;10.77;67.30;98725.47;5075125;28;20040;-58
2022/09/29 02:05:38;;;;;;;10.15;5.00;;;;;;;10.71;66.79;98734.13;5067068;28;20384;-58
2022/09/29 02:08:14;;;;;;;7.05;4.75;;;;;;;10.68;66.45;98734.44;5075378;28;20032;-54
2022/09/29 02:11:06;;;;;;;6.38;4.60;;;;;;;10.55;66.18;98720.56;5054978;28;20029;-56
2022/09/29 02:13:39;;;;;;;6.97;4.95;;;;;;;10.70;65.85;98745.81;5054726;28;20478;-54
2022/09/29 02:16:10;;;;;;;4.75;4.25;;;;;;;10.70;65.57;98736.94;5055208;28;20033;-54
2022/09/29 02:19:04;;;;;;;4.43;4.03;;;;;;;10.75;65.50;98743.53;5058222;28;20044;-55
2022/09/29 02:21:29;;;;;;;4.82;3.83;;;;;;;10.64;64.73;98754.47;5075033;28;20048;-57
2022/09/29 02:23:55;;;;;;;4.10;3.70;;;;;;;10.65;64.83;98748.13;5074924;28;20028;-57
2022/09/29 02:26:28;;;;;;;4.78;3.95;;;;;;;10.66;63.91;98746.25;5074748;28;20029;-55
2022/09/29 02:28:54;;;;;;;4.88;4.38;;;;;;;10.64;64.19;98746.44;5074547;28;20458;-57
2022/09/29 02:31:20;;;;;;;4.80;4.05;;;;;;;10.59;64.15;98735.31;5074699;28;20614;-55
2022/09/29 02:33:46;;;;;;;4.55;3.92;;;;;;;10.65;64.55;98745.44;5074368;28;20120;-55
2022/09/29 02:36:41;;;;;;;5.32;4.10;;;;;;;10.74;64.46;98736.50;5073442;28;20451;-55
2022/09/29 02:39:42;;;;;;;4.53;3.92;;;;;;;10.81;64.40;98743.91;5074417;28;20142;-58
2022/09/29 02:42:39;;;;;;;8.18;4.00;;;;;;;10.84;64.21;98740.91;5074570;28;20089;-54
2022/09/29 02:45:27;;;;;;;7.50;4.07;;;;;;;10.83;63.94;98740.09;5074605;28;20124;-54
2022/09/29 02:48:10;;;;;;;4.45;4.05;;;;;;;10.77;63.68;98754.91;5074011;28;20038;-54
2022/09/29 02:50:39;;;;;;;6.13;4.60;;;;;;;10.74;63.83;98752.56;5074439;28;20041;-56
2022/09/29 02:53:49;;;;;;;5.20;4.38;;;;;;;10.80;64.43;98740.41;5072714;28;20048;-51
2022/09/29 02:56:27;;;;;;;8.75;5.15;;;;;;;10.77;64.36;98751.41;5069025;28;20041;-59
2022/09/29 02:59:02;;;;;;;5.78;4.82;;;;;;;10.70;64.30;98753.84;5073958;28;20028;-58
2022/09/29 03:01:33;;;;;;;7.43;5.10;;;;;;;10.70;64.43;98753.00;5073570;28;20061;-54
2022/09/29 03:03:59;;;;;;;6.85;4.63;;;;;;;10.65;64.60;98748.13;5073878;28;20028;-57
2022/09/29 03:06:26;;;;;;;6.90;4.90;;;;;;;10.65;64.54;98755.28;5073410;28;20105;-54
2022/09/29 03:08:51;;;;;;;5.60;4.75;;;;;;;10.63;65.17;98748.25;5073732;28;20455;-56
2022/09/29 03:11:16;;;;;;;5.60;4.97;;;;;;;10.63;64.92;98750.94;5073617;28;20032;-53
2022/09/29 03:13:42;;;;;;;7.00;5.15;;;;;;;10.64;64.79;98749.09;5073464;28;20479;-59
2022/09/29 03:16:07;;;;;;;6.07;5.00;;;;;;;10.63;64.18;98756.28;5073822;28;20032;-51
2022/09/29 03:18:33;;;;;;;6.82;4.78;;;;;;;10.60;64.59;98751.22;5073133;28;20044;-57
2022/09/29 03:20:58;;;;;;;5.20;4.70;;;;;;;10.62;64.81;98759.13;5073530;28;20111;-53
2022/09/29 03:23:24;;;;;;;5.32;4.30;;;;;;;10.62;64.36;98767.16;5073685;28;20036;-52
2022/09/29 03:25:49;;;;;;;6.05;4.65;;;;;;;10.61;64.40;98762.81;5073153;28;20466;-56
2022/09/29 03:28:15;;;;;;;6.88;4.47;;;;;;;10.62;64.24;98767.16;5072892;28;20040;-52
2022/09/29 03:30:41;;;;;;;6.00;4.80;;;;;;;10.59;64.00;98765.63;5073764;28;20028;-55
2022/09/29 03:33:06;;;;;;;5.38;4.07;;;;;;;10.44;64.05;98743.00;5073284;28;20075;-54
2022/09/29 03:35:32;;;;;;;5.35;4.57;;;;;;;10.56;64.13;98767.75;5073294;28;20051;-56
2022/09/29 03:37:59;;;;;;;6.15;4.80;;;;;;;10.57;64.41;98766.75;5073017;28;20482;-55
2022/09/29 03:40:25;;;;;;;5.57;4.72;;;;;;;10.57;64.33;98766.75;5073032;28;20090;-54
2022/09/29 03:42:51;;;;;;;6.13;4.25;;;;;;;10.57;64.09;98770.28;5073018;28;20033;-53
2022/09/29 03:45:16;;;;;;;7.68;4.20;;;;;;;10.60;63.67;98772.66;5073268;28;20070;-53
2022/09/29 03:47:41;;;;;;;6.47;4.35;;;;;;;10.63;64.01;98782.22;5073002;28;20478;-54
2022/09/29 03:50:07;;;;;;;5.22;4.43;;;;;;;10.63;63.72;98788.41;5072536;28;20045;-55
2022/09/29 03:52:33;;;;;;;4.38;3.95;;;;;;;10.62;63.90;98792.06;5072875;28;20037;-56
2022/09/29 03:54:58;;;;;;;5.10;4.60;;;;;;;10.63;63.88;98798.28;5073056;28;20036;-54
2022/09/29 03:57:24;;;;;;;4.70;4.22;;;;;;;10.64;63.68;98794.63;5072074;28;20036;-50
2022/09/29 03:59:49;;;;;;;7.80;4.50;;;;;;;10.65;63.68;98801.66;5072340;28;20080;-52
2022/09/29 04:02:17;;;;;;;7.50;4.45;;;;;;;10.65;63.66;98790.94;5072848;28;20044;-52
2022/09/29 04:04:43;;;;;;;7.88;4.60;;;;;;;10.68;63.46;98796.00;5072802;28;20024;-53
2022/09/29 04:07:08;;;;;;;6.05;4.30;;;;;;;10.63;63.58;98788.41;5072282;28;20036;-54
2022/09/29 04:09:34;;;;;;;5.13;3.97;;;;;;;10.68;63.59;98785.28;5072556;28;20062;-54
2022/09/29 04:11:59;;;;;;;4.80;4.35;;;;;;;10.70;63.47;98794.00;5072762;28;20047;-52
2022/09/29 04:14:25;;;;;;;5.03;4.43;;;;;;;10.73;63.43;98796.38;5072640;28;20043;-55
2022/09/29 04:16:50;;;;;;;4.80;4.13;;;;;;;10.75;63.65;98796.25;5072117;28;20058;-52
2022/09/29 04:19:16;;;;;;;5.60;4.45;;;;;;;10.78;63.26;98801.28;5072246;28;20040;-59
2022/09/29 04:21:41;;;;;;;5.45;3.95;;;;;;;10.82;63.41;98809.84;5072982;28;20029;-53
2022/09/29 04:24:06;;;;;;;4.28;3.88;;;;;;;10.85;63.13;98806.88;5072795;28;20032;-56
2022/09/29 04:26:32;;;;;;;4.55;3.60;;;;;;;10.71;62.72;98770.75;5071848;28;20125;-57
2022/09/29 04:28:57;;;;;;;4.05;3.65;;;;;;;10.86;62.80;98789.84;5072157;28;20078;-54
2022/09/29 04:31:23;;;;;;;6.47;4.35;;;;;;;10.97;62.39;98799.47;5072426;28;20058;-53
2022/09/29 04:33:48;;;;;;;4.45;4.05;;;;;;;11.01;62.58;98796.34;5072405;28;20115;-54
2022/09/29 04:36:14;;;;;;;5.65;3.97;;;;;;;11.05;62.31;98805.75;5072206;28;20170;-56
2022/09/29 04:38:39;;;;;;;5.93;3.80;;;;;;;11.10;62.23;98799.09;5071917;28;20071;-56
2022/09/29 04:41:05;;;;;;;5.85;4.28;;;;;;;11.09;61.96;98794.72;5072448;28;20115;-55
2022/09/29 04:43:30;;;;;;;4.53;4.13;;;;;;;11.14;62.23;98795.13;5072265;28;20075;-56
2022/09/29 04:46:04;;;;;;;4.35;3.95;;;;;;;11.25;62.28;98797.56;5071856;28;20028;-54
2022/09/29 04:48:30;;;;;;;6.35;4.10;;;;;;;11.29;61.74;98800.78;5071963;28;20048;-55
2022/09/29 04:50:56;;;;;;;4.22;3.83;;;;;;;11.36;61.40;98807.19;5072160;28;20048;-56
2022/09/29 04:53:21;;;;;;;4.95;4.45;;;;;;;11.41;61.39;98807.56;5072337;28;20142;-55
2022/09/29 04:55:47;;;;;;;5.45;4.35;;;;;;;11.45;60.84;98802.75;5071091;28;20115;-59
2022/09/29 04:58:13;;;;;;;4.10;3.70;;;;;;;11.52;60.88;98805.66;5071797;28;20051;-49
2022/09/29 05:00:39;;;;;;;5.68;4.05;;;;;;;11.57;60.10;98795.31;5071548;28;20024;-55
2022/09/29 05:03:04;;;;;;;4.88;4.38;;;;;;;11.65;60.12;98803.41;5071750;28;20029;-54
2022/09/29 05:05:30;;;;;;;4.50;4.10;;;;;;;11.71;59.76;98799.28;5071828;28;20448;-52
2022/09/29 05:07:55;;;;;;;5.60;4.18;;;;;;;11.82;59.72;98804.38;5071424;28;20377;-55
2022/09/29 05:10:21;;;;;;;5.20;4.05;;;;;;;11.88;59.24;98798.38;5072003;28;20500;-54
2022/09/29 05:12:49;;;;;;;5.55;4.00;;;;;;;11.93;59.07;98800.56;5072253;28;20111;-52
2022/09/29 05:15:16;;;;;;;5.15;4.05;;;;;;;11.96;59.07;98805.66;5072264;28;20041;-55
2022/09/29 05:17:42;;;;;;;5.13;3.72;;;;;;;12.03;59.00;98805.88;5074891;28;20037;-53
2022/09/29 05:20:07;;;;;;;5.55;4.30;;;;;;;12.03;58.77;98812.09;5075501;28;20024;-55
2022/09/29 05:22:33;;;;;;;7.70;4.30;;;;;;;12.04;58.92;98812.91;5075779;28;20036;-58
2022/09/29 05:24:58;;;;;;;7.45;4.30;;;;;;;12.10;58.84;98814.13;5075563;28;20104;-58
2022/09/29 05:27:24;;;;;;;4.78;4.28;;;;;;;12.06;58.91;98827.03;5075212;28;20435;-57
2022/09/29 05:29:49;;;;;;;5.10;4.60;;;;;;;12.04;59.13;98837.06;5075540;28;20056;-64
2022/09/29 05:32:15;;;;;;;6.03;4.20;;;;;;;11.92;59.52;98833.75;5075524;28;20470;-68
2022/09/29 05:34:41;;;;;;;6.28;4.57;;;;;;;11.83;59.88;98838.25;5074976;28;20067;-51
2022/09/29 05:37:06;;;;;;;5.72;4.68;;;;;;;11.82;60.45;98844.63;5074358;28;20133;-54
2022/09/29 05:39:33;;;;;;;6.50;4.72;;;;;;;11.82;60.42;98841.94;5074062;28;20041;-58
2022/09/29 05:42:05;;;;;;;8.50;4.95;;;;;;;11.71;60.72;98834.13;5074995;28;20039;-55
2022/09/29 05:44:31;;;;;;;7.90;4.90;;;;;;;11.78;60.84;98848.59;5075074;28;20351;-56
2022/09/29 05:46:56;;;;;;;6.72;4.82;;;;;;;11.78;61.16;98848.59;5074958;28;20032;-53
2022/09/29 05:49:22;;;;;;;8.35;5.28;;;;;;;11.78;60.93;98840.53;5074732;28;20482;-56
2022/09/29 05:51:47;;;;;;;5.78;5.18;;;;;;;11.80;61.23;98849.28;5075290;28;20126;-56
2022/09/29 05:54:13;;;;;;;6.30;5.38;;;;;;;11.89;60.82;98853.72;5074812;28;20084;-55
2022/09/29 05:56:38;;;;;;;6.60;5.30;;;;;;;11.97;60.42;98852.09;5074987;28;20086;-56
2022/09/29 05:59:04;;;;;;;10.60;6.50;;;;;;;12.02;60.37;98864.06;5074827;28;20455;-52
2022/09/29 06:01:31;;;;;;;7.70;6.75;;;;;;;12.02;60.63;98865.88;5075186;28;20064;-55
2022/09/29 06:03:57;;;;;;;11.02;7.45;;;;;;;11.71;61.53;98848.38;5074730;28;20032;-61
2022/09/29 06:06:26;;;;;;;7.85;6.90;;;;;;;11.77;61.72;98874.56;5075072;28;20040;-67
2022/09/29 06:08:52;;;;;;;9.27;7.15;;;;;;;11.69;61.84;98874.47;5074761;28;20074;-64
2022/09/29 06:11:22;;;;;;;12.82;7.40;;;;;;;11.66;62.25;98868.63;5074605;28;20040;-60
2022/09/29 06:13:50;;;;;;;10.00;7.18;;;;;;;11.67;62.48;98865.75;5074811;28;20047;-60
2022/09/29 06:16:18;;;;;;;11.00;7.65;;;;;;;11.58;62.43;98845.25;5074656;28;20446;-60
2022/09/29 06:18:45;;;;;;;10.48;8.32;;;;;;;11.68;62.75;98871.97;5074578;28;20032;-61
2022/09/29 06:21:13;;;;;;;13.73;9.25;;;;;;;11.64;63.00;98866.06;5074848;28;20028;-61
2022/09/29 06:23:39;;;;;;;14.30;9.30;;;;;;;11.63;63.21;98865.25;5074307;28;20028;-61
2022/09/29 06:26:10;;;;;;;16.65;9.32;;;;;;;11.70;63.41;98872.66;5074780;28;20038;-61
2022/09/29 06:28:35;;;;;;;17.15;9.55;;;;;;;11.66;63.75;98864.06;5073933;28;20364;-61
2022/09/29 06:31:05;;;;;;;21.08;10.50;;;;;;;11.63;63.60;98857.19;5074654;28;20047;-60
2022/09/29 06:33:32;;;;;;;15.90;10.70;;;;;;;11.57;63.58;98841.72;5074453;28;20032;-61
2022/09/29 06:38:46;;;;;;;24.83;11.95;;;;;;;11.76;64.21;98866.66;5056221;28;20079;-60
2022/09/29 06:41:11;;;;;;;19.42;11.65;;;;;;;11.80;64.20;98868.03;5074491;28;20100;-61
2022/09/29 06:43:36;;;;;;;22.27;12.75;;;;;;;11.88;64.44;98861.91;5074084;28;20165;-62
2022/09/29 06:46:03;;;;;;;19.25;11.95;;;;;;;11.98;63.97;98867.19;5074365;28;20055;-64
2022/09/29 06:48:28;;;;;;;27.05;12.45;;;;;;;12.09;64.03;98869.66;5074197;28;20048;-59
2022/09/29 06:50:55;;;;;;;19.48;11.30;;;;;;;12.20;63.16;98879.28;5073658;28;20315;-64
2022/09/29 06:53:21;;;;;;;18.52;11.25;;;;;;;12.26;62.88;98880.47;5071612;28;20120;-62
2022/09/29 06:55:56;;;;;;;16.67;11.27;;;;;;;12.23;63.05;98848.59;5073001;28;20032;-61
2022/09/29 06:58:22;;;;;;;16.85;11.13;;;;;;;12.40;62.92;98879.03;5073696;28;20032;-63
2022/09/29 07:00:48;;;;;;;24.77;12.90;;;;;;;12.43;62.82;98876.88;5072719;28;20033;-60
2022/09/29 07:03:13;;;;;;;19.25;12.70;;;;;;;12.40;63.01;98862.94;5073263;28;20054;-60
2022/09/29 07:05:39;;;;;;;25.30;12.23;;;;;;;12.54;63.10;98882.97;5073334;28;20075;-61
2022/09/29 07:08:04;;;;;;;18.77;11.90;;;;;;;12.59;62.86;98878.00;5072790;28;20354;-61
2022/09/29 07:10:30;;;;;;;17.50;10.93;;;;;;;12.60;63.09;98893.91;5072724;28;20036;-61
2022/09/29 07:12:55;;;;;;;19.33;10.85;;;;;;;12.62;63.18;98886.53;5073077;28;20032;-61
2022/09/29 07:15:21;;;;;;;24.17;11.70;;;;;;;12.62;63.19;98889.22;5071164;28;20046;-62
2022/09/29 07:17:51;;;;;;;17.13;10.75;;;;;;;12.59;63.53;98897.59;5070044;28;20029;-63
2022/09/29 07:20:16;;;;;;;22.75;11.68;;;;;;;12.56;63.77;98905.16;5066339;28;20090;-61
2022/09/29 07:22:46;;;;;;;22.35;12.05;;;;;;;12.61;63.74;98900.16;5063805;28;20025;-61
2022/09/29 07:25:12;;;;;;;19.63;12.10;;;;;;;12.57;63.37;98902.31;5053237;28;20057;-62
2022/09/29 07:27:37;;;;;;;18.92;11.77;;;;;;;12.74;63.41;98897.84;5063391;28;20044;-61
2022/09/29 07:30:03;;;;;;;17.40;11.43;;;;;;;12.96;62.75;98900.97;5073097;28;20032;-61
2022/09/29 07:32:33;;;;;;;22.70;12.77;;;;;;;13.13;62.08;98904.53;5083507;28;20111;-61
2022/09/29 07:34:58;;;;;;;21.98;12.38;;;;;;;13.33;61.69;98910.50;5073265;28;20064;-61
2022/09/29 07:37:25;;;;;;;20.60;12.00;;;;;;;13.46;61.32;98910.03;5071309;28;20447;-64
2022/09/29 07:39:51;;;;;;;16.23;12.02;;;;;;;13.60;60.57;98908.56;5072226;28;20079;-62
2022/09/29 07:42:17;;;;;;;22.02;12.23;;;;;;;13.51;61.16;98909.56;5072490;28;20407;-63
2022/09/29 07:44:42;;;;;;;20.80;11.95;;;;;;;13.55;61.01;98908.22;5072808;28;20032;-61
2022/09/29 07:47:08;;;;;;;18.95;11.85;;;;;;;13.59;61.05;98906.88;5071878;28;20028;-60
2022/09/29 07:49:34;;;;;;;21.00;12.25;;;;;;;13.65;60.73;98905.38;5072564;28;20459;-61
2022/09/29 07:51:59;;;;;;;21.95;12.45;;;;;;;13.74;60.64;98914.25;5072372;28;20063;-61
2022/09/29 07:54:25;;;;;;;17.13;11.20;;;;;;;13.91;60.08;98917.84;5071757;28;20098;-63
2022/09/29 07:56:50;;;;;;;15.88;11.70;;;;;;;14.13;59.62;98920.84;5072593;28;20032;-62
2022/09/29 07:59:16;;;;;;;16.80;11.45;;;;;;;14.37;58.58;98917.28;5072336;28;20039;-63
2022/09/29 08:01:41;;;;;;;18.40;11.85;;;;;;;14.71;57.83;98918.94;5069610;28;20035;-61
2022/09/29 08:04:07;;;;;;;15.60;11.38;;;;;;;15.15;56.53;98922.09;5071793;28;20037;-61
2022/09/29 08:06:33;;;;;;;15.77;10.85;;;;;;;15.54;55.47;98929.31;5072239;28;20028;-61
2022/09/29 08:09:01;;;;;;;17.00;10.48;;;;;;;15.80;54.74;98941.63;5072291;28;20035;-61
2022/09/29 08:11:27;;;;;;;16.35;10.73;;;;;;;15.64;54.65;98938.00;5071493;28;20079;-61
2022/09/29 08:13:52;;;;;;;15.60;10.82;;;;;;;15.41;55.26;98947.94;5077356;28;20036;-58
2022/09/29 08:16:18;;;;;;;15.85;10.85;;;;;;;15.06;56.23;98953.66;5084634;28;20378;-61
2022/09/29 08:18:44;;;;;;;15.77;10.68;;;;;;;14.81;57.25;98950.22;5078235;28;20096;-60
2022/09/29 08:21:11;;;;;;;15.88;11.65;;;;;;;14.60;57.92;98955.13;5072421;28;20125;-60
2022/09/29 08:23:39;;;;;;;15.25;11.20;;;;;;;14.43;58.48;98966.94;5072505;28;20032;-62
2022/09/29 08:26:10;;;;;;;14.73;9.88;;;;;;;14.31;58.68;98969.13;5072519;28;20032;-60
2022/09/29 08:28:37;;;;;;;13.88;9.95;;;;;;;14.25;58.88;98972.50;5071757;28;20033;-61
2022/09/29 08:31:05;;;;;;;16.02;10.25;;;;;;;14.32;59.02;98977.03;5060532;28;20028;-62
2022/09/29 08:33:32;;;;;;;20.42;10.95;;;;;;;14.44;58.81;98982.91;5072275;28;20025;-60
2022/09/29 08:35:58;;;;;;;19.48;11.20;;;;;;;14.52;58.70;98976.66;5071500;28;20021;-60
2022/09/29 08:38:25;;;;;;;12.48;10.43;;;;;;;14.66;58.47;98985.91;5072177;28;20132;-60
2022/09/29 08:40:53;;;;;;;13.18;10.48;;;;;;;14.66;58.33;98985.91;5072068;28;20071;-60
2022/09/29 08:43:29;;;;;;;13.80;10.73;;;;;;;14.74;58.45;98991.31;5072435;28;20097;-59
2022/09/29 08:46:20;;;;;;;19.80;11.02;;;;;;;14.71;58.51;98983.59;5073540;28;20090;-53
2022/09/29 08:48:47;;;;;;;15.40;10.65;;;;;;;14.59;58.73;98990.31;5090874;28;20047;-60
2022/09/29 08:51:31;;;;;;;16.58;10.35;;;;;;;14.75;58.93;98984.94;5078821;28;20055;-59
2022/09/29 08:54:01;;;;;;;14.02;10.75;;;;;;;14.95;57.89;98987.25;5076036;28;20032;-61
2022/09/29 08:56:28;;;;;;;13.30;9.98;;;;;;;15.19;57.20;98996.22;5076524;28;20036;-62
2022/09/29 08:58:53;;;;;;;14.43;10.23;;;;;;;15.27;56.93;98996.22;5076507;28;20134;-61
2022/09/29 09:01:34;;;;;;;14.07;10.80;;;;;;;15.35;57.36;99001.56;5075538;28;20153;-60
2022/09/29 09:04:37;;;;;;;14.80;10.43;;;;;;;15.59;57.15;99002.47;5056124;28;20028;-59
2022/09/29 09:07:05;;;;;;;12.30;9.77;;;;;;;15.68;56.09;98997.88;5055586;28;20452;-60
2022/09/29 09:09:30;;;;;;;13.00;10.23;;;;;;;15.63;56.18;99009.19;5055883;28;20101;-61
2022/09/29 09:12:11;;;;;;;14.07;10.38;;;;;;;15.59;56.75;99013.25;5075596;28;20089;-61
2022/09/29 09:15:00;;;;;;;13.18;9.88;;;;;;;15.38;57.49;99021.97;5075662;28;20055;-61
2022/09/29 09:17:59;;;;;;;18.65;11.15;;;;;;;15.26;58.09;99017.94;5063581;28;20052;-61
2022/09/29 09:20:31;;;;;;;14.75;10.43;;;;;;;15.11;57.98;99007.06;5069226;28;20036;-60
2022/09/29 09:23:19;;;;;;;18.05;10.45;;;;;;;15.15;58.16;99022.72;5075494;28;20111;-64
2022/09/29 09:25:54;;;;;;;15.82;9.82;;;;;;;15.12;58.45;99011.44;5073439;28;20037;-58
2022/09/29 09:28:56;;;;;;;14.80;10.70;;;;;;;15.12;58.38;99016.81;5074898;28;20043;-60
2022/09/29 09:31:40;;;;;;;14.13;10.00;;;;;;;15.01;58.84;99015.34;5075461;28;20115;-60
2022/09/29 09:34:25;;;;;;;17.90;11.80;;;;;;;14.98;59.23;99019.22;5075430;28;20115;-61
2022/09/29 09:37:04;;;;;;;15.37;10.73;;;;;;;14.96;59.11;99018.56;5073969;28;20036;-61
2022/09/29 09:39:37;;;;;;;13.55;10.02;;;;;;;15.04;58.65;99023.94;5062995;28;20098;-60
2022/09/29 09:42:13;;;;;;;15.13;10.15;;;;;;;15.17;58.74;99026.09;5075016;28;20035;-61
2022/09/29 09:44:46;;;;;;;14.70;9.85;;;;;;;15.13;58.35;99008.56;5074576;28;20351;-58
2022/09/29 09:47:28;;;;;;;14.45;9.65;;;;;;;15.24;58.79;99018.16;5079315;28;20035;-60
2022/09/29 09:50:17;;;;;;;12.73;8.90;;;;;;;15.26;58.58;99036.81;5055505;28;20529;-60
2022/09/29 09:52:47;;;;;;;10.75;8.75;;;;;;;15.16;58.07;99028.94;5067849;28;20497;-59
2022/09/29 09:55:17;;;;;;;12.18;8.68;;;;;;;15.06;58.40;99013.81;5075775;28;20108;-60
2022/09/29 09:58:13;;;;;;;10.82;8.80;;;;;;;15.22;58.60;99033.66;5094951;28;20020;-59
2022/09/29 10:00:43;;;;;;;11.18;8.32;;;;;;;15.20;58.13;99024.91;5054985;28;20535;-61
2022/09/29 10:03:11;;;;;;;12.00;8.63;;;;;;;15.13;58.55;99023.91;5071329;28;20040;-57
2022/09/29 10:05:45;;;;;;;11.10;8.70;;;;;;;15.19;58.63;99029.44;5074131;28;20442;-61
2022/09/29 10:08:19;;;;;;;13.63;9.07;;;;;;;15.23;58.28;99029.09;5074995;28;20462;-60
2022/09/29 10:10:44;;;;;;;11.63;8.95;;;;;;;15.10;58.22;99008.06;5074539;28;20489;-58
2022/09/29 10:13:14;;;;;;;11.88;8.68;;;;;;;15.25;58.46;99027.91;5074605;28;20108;-62
2022/09/29 10:15:42;;;;;;;12.63;9.07;;;;;;;15.15;58.55;99022.72;5073803;28;20462;-62
2022/09/29 10:18:39;;;;;;;12.38;9.20;;;;;;;15.29;58.79;99040.03;5073622;28;20048;-61
2022/09/29 10:21:30;;;;;;;10.50;9.02;;;;;;;15.34;58.39;99032.25;5073424;28;20499;-61
2022/09/29 10:23:58;;;;;;;13.63;8.95;;;;;;;15.29;58.24;99042.72;5074503;28;20032;-62
2022/09/29 10:26:26;;;;;;;11.05;8.45;;;;;;;15.30;57.95;99055.19;5072491;28;20032;-62
2022/09/29 10:29:15;;;;;;;10.45;7.85;;;;;;;15.28;58.56;99059.91;5074302;28;20056;-61
2022/09/29 10:31:40;;;;;;;10.60;7.88;;;;;;;14.97;58.65;99036.41;5074258;28;20075;-62
2022/09/29 10:34:09;;;;;;;10.45;8.13;;;;;;;15.10;58.80;99065.53;5072719;28;20416;-61
2022/09/29 10:36:47;;;;;;;11.35;8.50;;;;;;;15.10;59.08;99067.38;5073713;28;20040;-60
2022/09/29 10:39:31;;;;;;;12.02;8.70;;;;;;;15.11;59.05;99075.31;5073704;28;20090;-62
2022/09/29 10:41:56;;;;;;;11.95;9.27;;;;;;;14.91;59.20;99069.44;5074142;28;20028;-61
2022/09/29 10:44:22;;;;;;;13.13;8.95;;;;;;;14.86;59.08;99071.81;5073643;28;20052;-62
2022/09/29 10:46:55;;;;;;;11.18;9.43;;;;;;;14.89;59.72;99090.31;5073817;28;20033;-60
2022/09/29 10:49:27;;;;;;;11.07;8.25;;;;;;;14.87;59.61;99084.25;5088672;28;20128;-62
2022/09/29 10:51:56;;;;;;;10.73;8.63;;;;;;;14.86;59.70;99087.97;5094067;28;20097;-62
2022/09/29 10:54:25;;;;;;;12.27;9.20;;;;;;;14.80;59.67;99100.25;5087209;28;20381;-61
2022/09/29 10:56:51;;;;;;;11.70;8.90;;;;;;;14.75;60.03;99100.78;5073914;28;20045;-60
2022/09/29 10:59:18;;;;;;;12.40;8.85;;;;;;;14.82;59.74;99109.00;5072980;28;20041;-60
2022/09/29 11:01:50;;;;;;;14.48;8.82;;;;;;;14.90;60.01;99113.56;5073790;28;20127;-61
2022/09/29 11:04:24;;;;;;;13.90;9.18;;;;;;;14.90;59.84;99111.72;5084789;28;20036;-61
2022/09/29 11:06:50;;;;;;;13.50;9.73;;;;;;;14.84;60.16;99116.94;5073337;28;20558;-60
2022/09/29 11:09:15;;;;;;;12.00;9.13;;;;;;;14.80;60.03;99102.97;5073340;28;20115;-61
2022/09/29 11:11:46;;;;;;;13.48;9.60;;;;;;;14.80;60.18;99119.13;5073455;28;20043;-61
2022/09/29 11:14:38;;;;;;;11.93;9.02;;;;;;;14.79;60.53;99120.13;5071179;28;20028;-61
2022/09/29 11:17:30;;;;;;;11.55;8.82;;;;;;;14.71;60.95;99122.84;5072897;28;20040;-62
2022/09/29 11:20:02;;;;;;;13.38;8.98;;;;;;;14.59;60.92;99130.38;5073542;28;20419;-61
2022/09/29 11:22:35;;;;;;;13.57;9.77;;;;;;;14.48;61.02;99123.47;5072844;28;20029;-62
2022/09/29 11:25:51;;;;;;;11.80;8.55;;;;;;;14.55;61.56;99132.56;5072664;28;20032;-61
2022/09/29 11:28:32;;;;;;;12.25;8.65;;;;;;;14.56;61.04;99125.34;5064091;28;20123;-62
2022/09/29 11:31:22;;;;;;;11.98;8.57;;;;;;;14.46;60.67;99120.09;5071331;28;20024;-62
2022/09/29 11:34:03;;;;;;;12.52;8.95;;;;;;;14.58;60.60;99134.91;5084094;28;20071;-62
2022/09/29 11:36:41;;;;;;;12.43;9.18;;;;;;;14.57;60.84;99129.72;5053392;28;20065;-63
2022/09/29 11:39:21;;;;;;;12.32;9.02;;;;;;;14.69;60.68;99138.31;5052274;28;20044;-61
2022/09/29 11:41:50;;;;;;;13.82;8.90;;;;;;;14.92;60.13;99130.41;5052629;28;20107;-61
2022/09/29 11:44:34;;;;;;;14.82;9.20;;;;;;;15.32;59.27;99136.75;5072339;28;20114;-57
2022/09/29 11:47:08;;;;;;;14.27;9.20;;;;;;;15.65;57.88;99138.53;5072516;28;20386;-64